Alto, Texas
Current Conditions -  °F | °C
As of 3:35 AM on Friday 31 Oct 2014 (Local Time) from KJSO Reporting Station
Clear Clear  
Wind Chill: 62°   Ceiling: Unl
Heat Index: 62°   Visibility: 10mi
Dew Point: 47°   Wind: 3mph
Humidity: 59%   Direction: 340°NNW
Pressure: 30.14"   Gusts: NA
Location:  31.65°N, 95.07°W
Report Text: KJSO 310835Z AUTO 34003KT 10SM CLR 16/08 A3014 RMK AO2 LTG DSNT SW T01650085
Loading
Personal Weather Stations






























Interactive Weather Map
Tropical Storm Tracking
New forecast layout! Learn more

10-Day Weather Forecast

Advertisements
Track Severe Weather on mobile